Estherville, IA (51334)

11:01 PM CDT on August 29, 2015 (GMT -0500)
East Lake Okoboji - Whisper Oaks | | Change Station
CLOSE
Current Station
Personal Weather Station
Location: Spirit Lake, IA
Elevation: 1434 ft
Nearby Weather Stations

Elev 1434 ft 43.42 °N, 95.09 °W | Updated 8 minutes ago

Partly Cloudy
Partly Cloudy
60.4 °F
Feels Like 60.4 °F
N
7.0
Wind Variable Wind from SE
Gusts 13.0 mph

Today
High -- | Low -- °F
--% Chance of Precip.
Yesterday
High -- | Low -- °F
Precip. -- in
6:39 AM 8:00 PM
Full, 100% visible
Pressure 30.04 in
Visibility 0.8 miles
Clouds Mostly Cloudy 300 ft
Dew Point 59 °F
Humidity 96%
Rainfall 0.00 in
Snow Depth Not available.
UV 0 out of 12
Pollen 9.30 out of 12
Air Quality Not available.
Flu Activity Not available.
METAR KEST 300352Z AUTO 19008KT 3/4SM BR BKN003 16/16 A3004 RMK AO2 SLP172 T01560156
Pressure 30.04 in
Visibility 0.8 miles
Clouds Mostly Cloudy 300 ft
Dew Point 59 °F
Humidity 96%
Rainfall 0.00 in
Snow Depth Not available.
UV 0 out of 12
Pollen 9.30 out of 12
Air Quality Not available.
Flu Activity Not available.
METAR KEST 300352Z AUTO 19008KT 3/4SM BR BKN003 16/16 A3004 RMK AO2 SLP172 T01560156

10-Day Weather Forecast

×

Almanac

Astronomy

Aug. 29, 2015 Rise Set
Actual Time
Civil Twilight
Nautical Twilight
Astronomical Twilight
Moon
Length of Visible Light
Length of Day
Tomorrow will be .
, % of the Moon is Illuminated

Today's Extremes

State Highs State Lows

Community

WunderPhotos

Upload Photos

1,850,876 photos uploaded!

WunderBlogs® & News

Nearby

Air Quality

  Air Quality AQ Index Pollutant
Not available.

Snow Depth

Station Depth Elevation

Earthquake Activity

City Distance Mag. Time & Date
Minimum magnitude displayed is 2.5.

Coastal Water Temperatures

Place Temperature

Stations

Nearby Weather Stations

Station Location Temp. Windchill Dew Point Humidity Wind Precip. Elev Updated Type